createdAt,value
2018-08-04T00:01:29.794Z,98127.38
2018-08-04T00:04:01.652Z,98130.87
2018-08-04T00:06:37.060Z,98135.38
2018-08-04T00:09:14.286Z,98132.92
2018-08-04T00:11:45.902Z,98133.42
2018-08-04T00:14:19.036Z,98132.45
2018-08-04T00:16:50.569Z,98142.43
2018-08-04T00:19:23.397Z,98138.44
2018-08-04T00:21:54.789Z,98137.78
2018-08-04T00:24:27.004Z,98145.60
2018-08-04T00:26:58.727Z,98149.09
2018-08-04T00:29:30.583Z,98146.11
2018-08-04T00:32:02.387Z,98149.42
2018-08-04T00:34:34.520Z,98150.75
2018-08-04T00:37:07.107Z,98151.94
2018-08-04T00:39:38.748Z,98152.45
2018-08-04T00:42:10.713Z,98160.45
2018-08-04T00:44:42.709Z,98160.12
2018-08-04T00:47:14.697Z,98161.12
2018-08-04T00:49:46.422Z,98162.28
2018-08-04T00:52:18.697Z,98160.84
2018-08-04T00:54:50.512Z,98164.52
2018-08-04T00:57:22.540Z,98168.00
2018-08-04T00:59:54.573Z,98169.67
2018-08-04T01:02:26.631Z,98166.75
2018-08-04T01:04:58.705Z,98169.92
2018-08-04T01:07:30.671Z,98171.90
2018-08-04T01:10:06.340Z,98178.05
2018-08-04T01:12:39.329Z,98179.10
2018-08-04T01:15:11.319Z,98180.58
2018-08-04T01:17:42.751Z,98188.89
2018-08-04T01:20:14.469Z,98191.89
2018-08-04T01:22:46.225Z,98190.73
2018-08-04T01:25:19.241Z,98189.40
2018-08-04T01:27:51.319Z,98189.22
2018-08-04T01:30:23.679Z,98194.73
2018-08-04T01:32:55.636Z,98192.06
2018-08-04T01:35:27.718Z,98196.24
2018-08-04T01:37:59.517Z,98196.60
2018-08-04T01:40:31.390Z,98202.58
2018-08-04T01:43:03.731Z,98205.93
2018-08-04T01:45:35.659Z,98209.31
2018-08-04T01:48:07.825Z,98213.30
2018-08-04T01:50:39.815Z,98207.66
2018-08-04T01:53:11.755Z,98213.30
2018-08-04T01:55:43.320Z,98215.64
2018-08-04T01:58:15.224Z,98216.98
2018-08-04T02:00:47.127Z,98222.63
2018-08-04T02:03:19.197Z,98225.63
2018-08-04T02:05:50.881Z,98230.95
2018-08-04T02:08:22.715Z,98232.79
2018-08-04T02:10:54.589Z,98234.95
2018-08-04T02:13:26.429Z,98236.96
2018-08-04T02:15:58.112Z,98242.97
2018-08-04T02:18:30.015Z,98241.97
2018-08-04T02:21:01.772Z,98242.29
2018-08-04T02:23:33.710Z,98243.13
2018-08-04T02:26:05.451Z,98248.45
2018-08-04T02:28:37.574Z,98253.78
2018-08-04T02:31:10.138Z,98246.47
2018-08-04T02:33:41.820Z,98249.13
2018-08-04T02:36:13.482Z,98252.30
2018-08-04T02:38:45.714Z,98249.95
2018-08-04T02:41:17.733Z,98250.79
2018-08-04T02:43:49.528Z,98248.63
2018-08-04T02:46:21.441Z,98253.63
2018-08-04T02:48:53.249Z,98253.45
2018-08-04T02:51:25.577Z,98254.81
2018-08-04T02:53:57.644Z,98265.20
2018-08-04T02:56:29.419Z,98275.33
2018-08-04T02:59:01.132Z,98284.42
2018-08-04T03:01:33.157Z,98282.34
2018-08-04T03:04:05.024Z,98283.68
2018-08-04T03:06:36.934Z,98286.02
2018-08-04T03:09:12.918Z,98293.33
2018-08-04T03:11:44.958Z,98292.50
2018-08-04T03:14:17.115Z,98289.34
2018-08-04T03:16:49.147Z,98296.33
2018-08-04T03:19:20.839Z,98298.33
2018-08-04T03:21:52.627Z,98300.00
2018-08-04T03:24:24.410Z,98302.48
2018-08-04T03:26:56.146Z,98306.66
2018-08-04T03:29:27.971Z,98299.81
2018-08-04T03:32:00.259Z,98297.83
2018-08-04T03:34:33.559Z,98298.01
2018-08-04T03:37:05.481Z,98297.00
2018-08-04T03:39:37.447Z,98302.66
2018-08-04T03:42:09.430Z,98304.31
2018-08-04T03:44:43.291Z,98296.33
2018-08-04T03:47:15.358Z,98297.59
2018-08-04T03:49:52.521Z,98294.25
2018-08-04T03:52:24.595Z,98296.65
2018-08-04T03:54:56.783Z,98296.33
2018-08-04T03:57:28.408Z,98304.49
2018-08-04T04:00:01.800Z,98298.16
2018-08-04T04:02:34.052Z,98291.50
2018-08-04T04:05:05.896Z,98303.31
2018-08-04T04:07:38.024Z,98297.66
2018-08-04T04:10:10.322Z,98304.59
2018-08-04T04:12:42.591Z,98303.02
2018-08-04T04:15:16.413Z,98300.00
2018-08-04T04:17:49.080Z,98303.61
2018-08-04T04:20:21.778Z,98309.59
2018-08-04T04:22:53.770Z,98305.59
2018-08-04T04:25:25.630Z,98306.27
2018-08-04T04:27:57.745Z,98315.57
2018-08-04T04:30:29.438Z,98310.59
2018-08-04T04:33:02.318Z,98318.41
2018-08-04T04:35:34.499Z,98317.58
2018-08-04T04:38:06.167Z,98322.47
2018-08-04T04:40:39.906Z,98320.92
2018-08-04T04:43:11.773Z,98319.98
2018-08-04T04:45:43.561Z,98326.46
2018-08-04T04:48:15.675Z,98321.64
2018-08-04T04:50:47.310Z,98323.92
2018-08-04T04:53:19.222Z,98321.31
2018-08-04T04:55:52.535Z,98328.15
2018-08-04T04:58:25.074Z,98333.30
2018-08-04T05:00:58.435Z,98328.62
2018-08-04T05:03:32.535Z,98323.30
2018-08-04T05:06:06.406Z,98333.57
2018-08-04T05:08:38.106Z,98331.73
2018-08-04T05:11:09.747Z,98332.09
2018-08-04T05:13:41.759Z,98334.40
2018-08-04T05:16:13.907Z,98335.23
2018-08-04T05:18:45.623Z,98333.57
2018-08-04T05:21:17.371Z,98329.07
2018-08-04T05:23:49.413Z,98339.05
2018-08-04T05:26:22.102Z,98331.17
2018-08-04T05:28:55.480Z,98334.88
2018-08-04T05:31:28.137Z,98333.84
2018-08-04T05:33:59.961Z,98332.83
2018-08-04T05:36:31.841Z,98331.50
2018-08-04T05:39:03.620Z,98336.33
2018-08-04T05:41:36.742Z,98334.88
2018-08-04T05:44:08.599Z,98333.98
2018-08-04T05:46:44.323Z,98331.00
2018-08-04T05:49:16.675Z,98332.48
2018-08-04T05:51:48.644Z,98331.15
2018-08-04T05:54:21.294Z,98331.47
2018-08-04T05:56:53.317Z,98328.81
2018-08-04T05:59:25.424Z,98329.81
2018-08-04T06:02:01.641Z,98318.33
2018-08-04T06:04:33.738Z,98330.14
2018-08-04T06:07:06.540Z,98320.99
2018-08-04T06:09:38.529Z,98321.44
2018-08-04T06:12:10.238Z,98316.94
2018-08-04T06:14:47.996Z,98314.14
2018-08-04T06:17:19.602Z,98309.58
2018-08-04T06:19:51.185Z,98312.16
2018-08-04T06:22:23.025Z,98306.39
2018-08-04T06:24:54.871Z,98310.89
2018-08-04T06:27:26.328Z,98307.91
2018-08-04T06:29:58.265Z,98309.86
2018-08-04T06:32:29.954Z,98305.50
2018-08-04T06:35:01.894Z,98307.34
2018-08-04T06:37:33.952Z,98300.17
2018-08-04T06:40:05.915Z,98305.69
2018-08-04T06:42:37.766Z,98299.84
2018-08-04T06:45:09.694Z,98297.16
2018-08-04T06:47:41.662Z,98296.66
2018-08-04T06:50:13.604Z,98293.16
2018-08-04T06:52:45.474Z,98287.33
2018-08-04T06:55:17.570Z,98291.83
2018-08-04T06:57:49.820Z,98282.80
2018-08-04T07:00:21.447Z,98278.80
2018-08-04T07:02:55.467Z,98281.78
2018-08-04T07:05:27.405Z,98269.47
2018-08-04T07:07:59.351Z,98273.46
2018-08-04T07:10:33.327Z,98272.45
2018-08-04T07:13:06.604Z,98268.20
2018-08-04T07:15:39.347Z,98268.52
2018-08-04T07:18:11.089Z,98267.95
2018-08-04T07:20:42.925Z,98267.34
2018-08-04T07:23:14.873Z,98271.77
2018-08-04T07:25:47.878Z,98262.45
2018-08-04T07:28:19.753Z,98264.11
2018-08-04T07:30:51.749Z,98258.77
2018-08-04T07:33:23.822Z,98260.11
2018-08-04T07:35:55.885Z,98252.29
2018-08-04T07:38:29.599Z,98252.47
2018-08-04T07:41:01.733Z,98244.47
2018-08-04T07:43:33.798Z,98243.79
2018-08-04T07:46:05.676Z,98231.97
2018-08-04T07:48:38.530Z,98239.25
2018-08-04T07:51:10.125Z,98234.75
2018-08-04T07:53:41.930Z,98228.41
2018-08-04T07:56:13.747Z,98221.75
2018-08-04T07:58:45.928Z,98220.41
2018-08-04T08:01:17.843Z,98215.41
2018-08-04T08:03:49.693Z,98213.07
2018-08-04T08:06:21.555Z,98213.25
2018-08-04T08:08:53.399Z,98209.58
2018-08-04T08:11:25.198Z,98211.23
2018-08-04T08:13:57.265Z,98201.72
2018-08-04T08:16:29.323Z,98204.39
2018-08-04T08:19:01.277Z,98203.67
2018-08-04T08:21:32.911Z,98200.00
2018-08-04T08:24:04.842Z,98196.83
2018-08-04T08:26:37.657Z,98186.84
2018-08-04T08:29:09.715Z,98189.33
2018-08-04T08:31:41.374Z,98180.65
2018-08-04T08:34:14.265Z,98183.45
2018-08-04T08:36:46.190Z,98177.80
2018-08-04T08:39:21.161Z,98177.63
2018-08-04T08:41:53.564Z,98170.95
2018-08-04T08:44:27.705Z,98164.29
2018-08-04T08:46:59.482Z,98163.57
2018-08-04T08:49:33.491Z,98163.89
2018-08-04T08:52:06.875Z,98164.54
2018-08-04T08:54:38.724Z,98156.58
2018-08-04T08:57:13.356Z,98148.30
2018-08-04T08:59:45.084Z,98145.73
2018-08-04T09:02:21.641Z,98143.39
2018-08-04T09:04:57.346Z,98132.73
2018-08-04T09:07:30.355Z,98125.98
2018-08-04T09:10:02.464Z,98130.52
2018-08-04T09:12:34.165Z,98125.19
2018-08-04T09:15:09.122Z,98127.45
2018-08-04T09:17:41.436Z,98125.11
2018-08-04T09:20:15.898Z,98122.77
2018-08-04T09:22:48.080Z,98120.61
2018-08-04T09:25:19.946Z,98117.19
2018-08-04T09:27:52.090Z,98115.64
2018-08-04T09:30:28.823Z,98120.28
2018-08-04T09:33:02.460Z,98117.03
2018-08-04T09:35:34.935Z,98115.52
2018-08-04T09:38:09.923Z,98115.02
2018-08-04T09:40:43.343Z,98110.69
2018-08-04T09:43:15.296Z,98105.55
2018-08-04T09:45:47.171Z,98103.92
2018-08-04T09:48:20.118Z,98097.04
2018-08-04T09:50:51.830Z,98097.25
2018-08-04T09:53:27.292Z,98090.33
2018-08-04T09:55:59.179Z,98090.33
2018-08-04T09:58:32.920Z,98095.66
2018-08-04T10:01:12.731Z,98090.00
2018-08-04T10:03:47.592Z,98090.19
2018-08-04T10:06:20.951Z,98082.51
2018-08-04T10:08:53.601Z,98080.30
2018-08-04T10:11:26.167Z,98072.08
2018-08-04T10:14:00.557Z,98072.98
2018-08-04T10:16:35.145Z,98068.67
2018-08-04T10:19:09.038Z,98066.33
2018-08-04T10:21:42.054Z,98070.42
2018-08-04T10:24:14.599Z,98064.22
2018-08-04T10:26:48.195Z,98067.20
2018-08-04T10:29:22.651Z,98056.21
2018-08-04T10:31:56.521Z,98058.51
2018-08-04T10:34:30.256Z,98053.46
2018-08-04T10:37:03.718Z,98056.77
2018-08-04T10:39:36.761Z,98061.09
2018-08-04T10:42:12.590Z,98053.17
2018-08-04T10:44:45.119Z,98047.84
2018-08-04T10:47:19.499Z,98045.17
2018-08-04T10:49:52.385Z,98049.17
2018-08-04T10:52:24.456Z,98051.75
2018-08-04T10:54:57.011Z,98046.05
2018-08-04T10:57:29.555Z,98056.66
2018-08-04T11:00:01.922Z,98055.00
2018-08-04T11:02:34.636Z,98058.34
2018-08-04T11:05:07.823Z,98054.34
2018-08-04T11:07:40.846Z,98054.69
2018-08-04T11:10:12.970Z,98055.00
2018-08-04T11:12:45.023Z,98048.34
2018-08-04T11:15:17.005Z,98048.98
2018-08-04T11:17:49.807Z,98047.14
2018-08-04T11:20:22.946Z,98049.48
2018-08-04T11:22:57.188Z,98043.14
2018-08-04T11:25:29.497Z,98048.71
2018-08-04T11:28:07.314Z,98044.52
2018-08-04T11:30:40.654Z,98044.23
2018-08-04T11:33:14.494Z,98041.38
2018-08-04T11:35:46.794Z,98036.36
2018-08-04T11:38:18.833Z,98041.70
2018-08-04T11:40:50.653Z,98040.55
2018-08-04T11:43:23.701Z,98045.25
2018-08-04T11:45:55.942Z,98051.22
2018-08-04T11:48:30.913Z,98054.95
2018-08-04T11:51:06.787Z,98053.94
2018-08-04T11:53:38.922Z,98056.92
2018-08-04T11:56:11.037Z,98058.58
2018-08-04T11:58:44.827Z,98060.64
2018-08-04T12:01:18.318Z,98059.50
2018-08-04T12:03:51.808Z,98065.88
2018-08-04T12:06:23.716Z,98061.62
2018-08-04T12:09:01.270Z,98065.66
2018-08-04T12:11:34.037Z,98067.00
2018-08-04T12:14:09.121Z,98061.79
2018-08-04T12:16:43.828Z,98058.11
2018-08-04T12:19:15.832Z,98060.14
2018-08-04T12:21:50.528Z,98057.41
2018-08-04T12:24:22.045Z,98061.92
2018-08-04T12:26:54.247Z,98058.11
2018-08-04T12:29:26.107Z,98062.75
2018-08-04T12:31:58.412Z,98064.08
2018-08-04T12:34:30.220Z,98058.74
2018-08-04T12:37:02.316Z,98059.03
2018-08-04T12:39:34.200Z,98060.08
2018-08-04T12:42:06.304Z,98063.03
2018-08-04T12:44:38.326Z,98062.52
2018-08-04T12:47:10.731Z,98068.38
2018-08-04T12:49:42.873Z,98071.77
2018-08-04T12:52:16.497Z,98072.88
2018-08-04T12:54:48.598Z,98076.19
2018-08-04T12:57:21.975Z,98082.03
2018-08-04T12:59:54.071Z,98086.17
2018-08-04T13:02:26.173Z,98093.35
2018-08-04T13:04:58.567Z,98097.16
2018-08-04T13:07:30.315Z,98096.02
2018-08-04T13:10:02.273Z,98106.00
2018-08-04T13:12:34.435Z,98111.02
2018-08-04T13:15:07.862Z,98109.36
2018-08-04T13:17:39.360Z,98116.03
2018-08-04T13:20:11.583Z,98124.69
2018-08-04T13:22:43.846Z,98123.95
2018-08-04T13:25:15.971Z,98131.36
2018-08-04T13:27:47.625Z,98137.81
2018-08-04T13:30:19.910Z,98135.68
2018-08-04T13:32:52.688Z,98132.38
2018-08-04T13:35:24.876Z,98140.70
2018-08-04T13:37:56.708Z,98138.34
2018-08-04T13:40:29.130Z,98147.16
2018-08-04T13:43:01.394Z,98146.73
2018-08-04T13:45:34.844Z,98152.70
2018-08-04T13:48:08.185Z,98150.36
2018-08-04T13:50:42.037Z,98145.81
2018-08-04T13:53:16.895Z,98142.35
2018-08-04T13:55:49.489Z,98144.30
2018-08-04T13:58:21.552Z,98142.13
2018-08-04T14:00:53.740Z,98150.14
2018-08-04T14:03:26.418Z,98150.97
2018-08-04T14:05:58.279Z,98154.36
2018-08-04T14:08:30.802Z,98160.72
2018-08-04T14:11:02.811Z,98165.23
2018-08-04T14:13:37.020Z,98163.16
2018-08-04T14:16:09.329Z,98174.38
2018-08-04T14:18:41.774Z,98174.67
2018-08-04T14:21:13.544Z,98180.33
2018-08-04T14:23:46.122Z,98183.41
2018-08-04T14:26:18.827Z,98185.06
2018-08-04T14:28:54.192Z,98185.34
2018-08-04T14:31:26.419Z,98186.39
2018-08-04T14:33:58.684Z,98189.25
2018-08-04T14:36:31.008Z,98189.06
2018-08-04T14:39:04.986Z,98191.20
2018-08-04T14:41:37.558Z,98191.92
2018-08-04T14:44:11.893Z,98192.61
2018-08-04T14:46:45.502Z,98197.44
2018-08-04T14:49:18.795Z,98196.43
2018-08-04T14:51:51.830Z,98194.59
2018-08-04T14:54:23.627Z,98196.75
2018-08-04T14:56:58.950Z,98189.86
2018-08-04T14:59:31.732Z,98198.51
2018-08-04T15:02:04.139Z,98201.77
2018-08-04T15:04:36.882Z,98204.25
2018-08-04T15:07:08.892Z,98211.75
2018-08-04T15:09:44.171Z,98207.21
2018-08-04T15:12:17.282Z,98214.10
2018-08-04T15:14:49.826Z,98218.61
2018-08-04T15:17:24.014Z,98218.72
2018-08-04T15:19:57.531Z,98214.71
2018-08-04T15:22:30.509Z,98220.05
2018-08-04T15:25:11.883Z,98214.71
2018-08-04T15:27:44.730Z,98223.36
2018-08-04T15:30:20.482Z,98219.36
2018-08-04T15:32:53.954Z,98223.77
2018-08-04T15:35:26.037Z,98226.72
2018-08-04T15:37:58.144Z,98229.39
2018-08-04T15:40:32.495Z,98224.05
2018-08-04T15:43:08.023Z,98229.71
2018-08-04T15:45:40.176Z,98237.72
2018-08-04T15:48:12.649Z,98236.70
2018-08-04T15:50:44.569Z,98237.53
2018-08-04T15:53:18.780Z,98239.38
2018-08-04T15:55:51.768Z,98246.38
2018-08-04T15:58:24.536Z,98248.21
2018-08-04T16:00:56.604Z,98248.40
2018-08-04T16:03:29.627Z,98253.05
2018-08-04T16:06:03.333Z,98258.89
2018-08-04T16:08:35.572Z,98251.06
2018-08-04T16:11:07.326Z,98247.06
2018-08-04T16:13:40.126Z,98248.40
2018-08-04T16:16:13.155Z,98246.88
2018-08-04T16:18:47.403Z,98249.05
2018-08-04T16:21:21.401Z,98245.03
2018-08-04T16:23:56.404Z,98243.38
2018-08-04T16:26:28.848Z,98241.41
2018-08-04T16:29:00.899Z,98246.74
2018-08-04T16:31:33.350Z,98242.23
2018-08-04T16:34:05.284Z,98243.78
2018-08-04T16:36:38.195Z,98249.41
2018-08-04T16:39:12.231Z,98251.06
2018-08-04T16:41:43.711Z,98252.72
2018-08-04T16:44:17.685Z,98257.23
2018-08-04T16:46:49.343Z,98253.73
2018-08-04T16:49:26.605Z,98245.55
2018-08-04T16:51:58.930Z,98244.72
2018-08-04T16:54:31.434Z,98244.72
2018-08-04T16:57:03.404Z,98252.41
2018-08-04T16:59:35.340Z,98250.24
2018-08-04T17:02:08.974Z,98252.08
2018-08-04T17:04:45.360Z,98250.14
2018-08-04T17:07:17.505Z,98248.80
2018-08-04T17:09:50.444Z,98250.45
2018-08-04T17:12:24.543Z,98253.73
2018-08-04T17:14:58.203Z,98252.72
2018-08-04T17:17:31.819Z,98257.42
2018-08-04T17:20:06.755Z,98252.41
2018-08-04T17:22:39.591Z,98248.40
2018-08-04T17:25:11.662Z,98247.39
2018-08-04T17:27:44.580Z,98253.13
2018-08-04T17:30:16.926Z,98255.80
2018-08-04T17:32:49.500Z,98251.06
2018-08-04T17:35:22.670Z,98249.13
2018-08-04T17:37:54.165Z,98247.89
2018-08-04T17:40:27.307Z,98251.06
2018-08-04T17:42:59.907Z,98248.72
2018-08-04T17:45:35.796Z,98241.41
2018-08-04T17:48:07.789Z,98236.06
2018-08-04T17:50:39.375Z,98238.13
2018-08-04T17:53:11.386Z,98232.47
2018-08-04T17:55:44.062Z,98230.11
2018-08-04T17:58:15.779Z,98233.11
2018-08-04T18:00:48.001Z,98227.77
2018-08-04T18:03:19.983Z,98230.22
2018-08-04T18:05:54.997Z,98224.51
2018-08-04T18:08:30.034Z,98230.81
2018-08-04T18:11:02.792Z,98231.77
2018-08-04T18:13:35.650Z,98234.44
2018-08-04T18:16:09.863Z,98230.73
2018-08-04T18:18:42.394Z,98231.77
2018-08-04T18:21:14.639Z,98230.11
2018-08-04T18:23:48.431Z,98230.44
2018-08-04T18:26:22.509Z,98228.70
2018-08-04T18:28:58.303Z,98229.90
2018-08-04T18:31:32.708Z,98221.60
2018-08-04T18:34:06.410Z,98229.39
2018-08-04T18:36:38.988Z,98219.03
2018-08-04T18:39:12.951Z,98212.45
2018-08-04T18:41:47.137Z,98206.78
2018-08-04T18:44:20.348Z,98207.11
2018-08-04T18:46:52.411Z,98203.10
2018-08-04T18:49:24.023Z,98198.59
2018-08-04T18:51:55.791Z,98194.59
2018-08-04T18:54:29.020Z,98191.92
2018-08-04T18:57:04.398Z,98191.73
2018-08-04T18:59:38.762Z,98193.44
2018-08-04T19:02:11.986Z,98194.45
2018-08-04T19:04:43.506Z,98187.09
2018-08-04T19:07:17.327Z,98183.45
2018-08-04T19:09:50.582Z,98180.09
2018-08-04T19:12:24.436Z,98179.77
2018-08-04T19:14:58.861Z,98174.44
2018-08-04T19:17:32.658Z,98171.77
2018-08-04T19:20:06.575Z,98164.08
2018-08-04T19:22:39.569Z,98155.25
2018-08-04T19:25:12.909Z,98158.23
2018-08-04T19:27:46.175Z,98153.41
2018-08-04T19:30:18.700Z,98151.75
2018-08-04T19:32:51.068Z,98149.08
2018-08-04T19:35:25.224Z,98145.39
2018-08-04T19:38:00.712Z,98136.24
2018-08-04T19:40:32.985Z,98139.42
2018-08-04T19:43:04.822Z,98139.42
2018-08-04T19:45:36.962Z,98138.09
2018-08-04T19:48:10.611Z,98136.75
2018-08-04T19:50:44.887Z,98139.88
2018-08-04T19:53:21.174Z,98137.85
2018-08-04T19:55:54.111Z,98132.14
2018-08-04T19:58:28.020Z,98126.80
2018-08-04T20:01:02.351Z,98129.47
2018-08-04T20:03:36.114Z,98124.42
2018-08-04T20:06:11.524Z,98123.91
2018-08-04T20:08:45.964Z,98123.59
2018-08-04T20:11:20.102Z,98115.08
2018-08-04T20:13:53.817Z,98118.58
2018-08-04T20:16:28.183Z,98115.80
2018-08-04T20:19:02.047Z,98119.81
2018-08-04T20:21:35.262Z,98109.73
2018-08-04T20:24:09.368Z,98112.41
2018-08-04T20:26:42.424Z,98102.97
2018-08-04T20:29:16.755Z,98099.47
2018-08-04T20:31:49.764Z,98105.13
2018-08-04T20:34:23.802Z,98106.47
2018-08-04T20:36:57.014Z,98091.02
2018-08-04T20:39:33.108Z,98099.84
2018-08-04T20:42:06.368Z,98103.85
2018-08-04T20:44:40.657Z,98101.50
2018-08-04T20:47:16.061Z,98100.48
2018-08-04T20:49:50.345Z,98094.14
2018-08-04T20:52:21.906Z,98096.48
2018-08-04T20:54:55.173Z,98080.16
2018-08-04T20:57:27.189Z,98076.84
2018-08-04T20:59:59.555Z,98078.31
2018-08-04T21:02:31.305Z,98079.01
2018-08-04T21:05:06.965Z,98077.16
2018-08-04T21:07:38.810Z,98069.89
2018-08-04T21:10:10.986Z,98069.48
2018-08-04T21:12:42.719Z,98068.14
2018-08-04T21:15:16.507Z,98070.68
2018-08-04T21:17:48.358Z,98067.22
2018-08-04T21:20:20.179Z,98064.84
2018-08-04T21:22:52.157Z,98072.84
2018-08-04T21:25:24.318Z,98059.91
2018-08-04T21:27:56.092Z,98057.56
2018-08-04T21:30:27.871Z,98058.58
2018-08-04T21:32:59.613Z,98053.56
2018-08-04T21:35:31.355Z,98046.56
2018-08-04T21:38:04.531Z,98041.92
2018-08-04T21:40:36.358Z,98038.24
2018-08-04T21:43:08.193Z,98033.73
2018-08-04T21:45:41.145Z,98038.24
2018-08-04T21:48:15.660Z,98034.94
2018-08-04T21:50:47.411Z,98029.09
2018-08-04T21:53:20.975Z,98033.92
2018-08-04T21:55:54.175Z,98034.94
2018-08-04T21:58:26.639Z,98033.92
2018-08-04T22:01:03.237Z,98029.92
2018-08-04T22:03:36.979Z,98038.94
2018-08-04T22:06:08.546Z,98034.62
2018-08-04T22:08:49.889Z,98037.28
2018-08-04T22:11:21.720Z,98036.46
2018-08-04T22:13:53.509Z,98032.27
2018-08-04T22:16:25.250Z,98035.13
2018-08-04T22:18:57.181Z,98031.62
2018-08-04T22:21:29.117Z,98030.30
2018-08-04T22:24:01.295Z,98034.30
2018-08-04T22:26:33.185Z,98032.68
2018-08-04T22:29:05.071Z,98040.17
2018-08-04T22:31:36.742Z,98039.34
2018-08-04T22:34:08.595Z,98037.88
2018-08-04T22:36:41.029Z,98036.87
2018-08-04T22:39:14.562Z,98040.36
2018-08-04T22:41:47.050Z,98047.55
2018-08-04T22:44:18.994Z,98046.20
2018-08-04T22:46:50.627Z,98047.73
2018-08-04T22:49:22.700Z,98059.73
2018-08-04T22:51:54.733Z,98058.41
2018-08-04T22:54:26.722Z,98056.43
2018-08-04T22:57:01.321Z,98070.41
2018-08-04T22:59:33.440Z,98077.77
2018-08-04T23:02:05.883Z,98075.42
2018-08-04T23:04:37.971Z,98071.83
2018-08-04T23:07:09.888Z,98076.12
2018-08-04T23:09:41.978Z,98085.68
2018-08-04T23:12:13.969Z,98084.34
2018-08-04T23:14:45.742Z,98088.13
2018-08-04T23:17:17.717Z,98083.52
2018-08-04T23:19:49.609Z,98085.17
2018-08-04T23:22:21.739Z,98085.17
2018-08-04T23:24:53.539Z,98088.53
2018-08-04T23:27:25.194Z,98100.03
2018-08-04T23:29:57.272Z,98101.88
2018-08-04T23:32:28.916Z,98108.86
2018-08-04T23:35:01.257Z,98102.38
2018-08-04T23:37:33.311Z,98106.89
2018-08-04T23:41:08.205Z,98110.70
2018-08-04T23:43:39.960Z,98101.88
2018-08-04T23:46:11.698Z,98098.25
2018-08-04T23:48:43.929Z,98103.27
2018-08-04T23:51:15.935Z,98097.73
2018-08-04T23:53:47.491Z,98102.75
2018-08-04T23:56:20.634Z,98102.46
2018-08-04T23:58:53.636Z,98101.42
